Time;durP1;ratioP1;P1;durP2;ratioP2;P2;SDS_P1;SDS_P2;PMS_P1;PMS_P2;Temp;Humidity;BMP_temperature;BMP_pressure;BME280_temperature;BME280_humidity;BME280_pressure;Samples;Min_cycle;Max_cycle;Signal;HPM_P1;HPM_P2
2022/04/04 00:01:15;;;;;;;8.88;4.78;;;3.00;99.90;;;;;;5031027;28;20045;-71
2022/04/04 00:03:41;;;;;;;4.78;3.22;;;2.90;99.90;;;;;;5063775;28;20549;-70
2022/04/04 00:06:07;;;;;;;8.35;3.78;;;2.90;99.90;;;;;;5030998;28;20129;-71
2022/04/04 00:08:33;;;;;;;13.13;4.40;;;2.90;99.90;;;;;;5030682;28;20095;-71
2022/04/04 00:11:00;;;;;;;6.22;3.75;;;2.90;99.90;;;;;;5028580;28;20073;-71
2022/04/04 00:13:27;;;;;;;6.22;4.10;;;2.90;99.90;;;;;;5041857;28;20041;-71
2022/04/04 00:15:53;;;;;;;5.63;3.35;;;2.90;99.90;;;;;;5067195;28;20037;-71
2022/04/04 00:18:19;;;;;;;7.53;3.83;;;2.90;99.90;;;;;;5050586;28;20037;-71
2022/04/04 00:20:45;;;;;;;6.70;3.53;;;2.90;99.90;;;;;;5051971;28;20386;-71
2022/04/04 00:23:14;;;;;;;8.82;3.88;;;2.80;99.90;;;;;;5050315;28;20393;-71
2022/04/04 00:25:46;;;;;;;5.93;3.78;;;2.90;99.90;;;;;;5033706;28;20509;-71
2022/04/04 00:28:13;;;;;;;4.95;3.47;;;2.90;99.90;;;;;;5051471;28;20493;-71
2022/04/04 00:30:40;;;;;;;6.18;3.60;;;3.00;99.90;;;;;;5051589;28;20040;-72
2022/04/04 00:33:07;;;;;;;6.47;3.50;;;3.00;99.90;;;;;;5050420;28;20045;-71
2022/04/04 00:35:33;;;;;;;6.82;4.65;;;3.10;99.90;;;;;;5034311;28;20083;-71
2022/04/04 00:38:04;;;;;;;4.13;2.65;;;3.10;99.90;;;;;;5034717;28;20377;-71
2022/04/04 00:40:30;;;;;;;9.23;4.20;;;3.20;99.90;;;;;;5051607;28;20037;-73
2022/04/04 00:42:57;;;;;;;9.40;4.63;;;3.20;99.90;;;;;;5048972;28;20048;-71
2022/04/04 00:45:23;;;;;;;4.25;3.10;;;3.30;99.90;;;;;;5084101;28;20089;-75
2022/04/04 00:47:48;;;;;;;7.10;4.47;;;3.40;99.90;;;;;;5051399;28;20375;-71
2022/04/04 00:50:14;;;;;;;10.30;5.65;;;3.40;99.90;;;;;;5033428;28;20040;-71
2022/04/04 00:52:40;;;;;;;8.23;4.57;;;3.50;99.90;;;;;;5051439;28;20043;-71
2022/04/04 00:55:10;;;;;;;8.98;5.85;;;3.60;99.90;;;;;;5051403;28;20037;-71
2022/04/04 00:57:40;;;;;;;7.88;4.85;;;3.50;99.90;;;;;;5050166;28;20512;-70
2022/04/04 01:00:11;;;;;;;11.00;6.32;;;3.60;99.90;;;;;;5051327;28;20056;-71
2022/04/04 01:02:38;;;;;;;10.90;6.47;;;3.60;99.90;;;;;;5055337;28;20068;-78
2022/04/04 01:05:05;;;;;;;9.75;6.68;;;3.60;99.90;;;;;;5055178;28;20103;-71
2022/04/04 01:07:32;;;;;;;11.52;6.82;;;3.60;99.90;;;;;;5055248;28;20124;-72
2022/04/04 01:09:57;;;;;;;11.13;7.80;;;3.60;99.90;;;;;;5087314;28;20096;-72
2022/04/04 01:12:24;;;;;;;16.88;7.97;;;3.60;99.90;;;;;;5085130;28;20041;-73
2022/04/04 01:14:50;;;;;;;9.18;5.65;;;3.60;99.90;;;;;;5053599;28;20045;-71
2022/04/04 01:17:19;;;;;;;12.68;8.05;;;3.70;99.90;;;;;;5053646;28;20475;-72
2022/04/04 01:19:45;;;;;;;10.90;6.78;;;3.70;99.90;;;;;;5053980;28;20417;-70
2022/04/04 01:22:14;;;;;;;13.23;8.02;;;3.70;99.90;;;;;;5054903;28;20052;-71
2022/04/04 01:24:41;;;;;;;13.75;9.23;;;3.70;99.90;;;;;;5036712;28;20098;-75
2022/04/04 01:27:11;;;;;;;12.85;6.78;;;3.70;99.90;;;;;;5054424;28;20056;-71
2022/04/04 01:29:38;;;;;;;13.60;8.55;;;3.80;99.90;;;;;;5054786;28;20467;-72
2022/04/04 01:32:05;;;;;;;16.17;9.63;;;3.80;99.90;;;;;;5054794;28;20033;-75
2022/04/04 01:34:31;;;;;;;13.93;8.88;;;3.80;99.90;;;;;;5054499;28;20045;-72
2022/04/04 01:36:57;;;;;;;15.57;10.48;;;3.80;99.90;;;;;;5053286;28;20045;-72
2022/04/04 01:39:24;;;;;;;16.83;10.48;;;3.90;99.90;;;;;;5052997;28;20052;-74
2022/04/04 01:41:51;;;;;;;16.95;11.02;;;3.90;99.90;;;;;;5051944;28;20037;-72
2022/04/04 01:44:17;;;;;;;12.18;7.00;;;3.90;99.90;;;;;;5052971;28;20041;-72
2022/04/04 01:46:43;;;;;;;14.25;10.52;;;3.90;99.90;;;;;;5054529;28;20404;-77
2022/04/04 01:49:09;;;;;;;14.48;10.73;;;4.00;99.90;;;;;;5036763;28;20123;-73
2022/04/04 01:51:37;;;;;;;14.98;10.73;;;4.00;99.90;;;;;;5054215;28;20555;-73
2022/04/04 01:54:04;;;;;;;14.30;11.02;;;4.00;99.90;;;;;;5052782;28;20517;-73
2022/04/04 01:56:30;;;;;;;14.10;9.25;;;4.00;99.90;;;;;;5036304;28;20083;-74
2022/04/04 01:58:56;;;;;;;15.65;11.23;;;4.00;99.90;;;;;;5054409;28;20102;-72
2022/04/04 02:01:24;;;;;;;14.82;10.90;;;4.10;99.90;;;;;;5052871;28;20048;-76
2022/04/04 02:03:52;;;;;;;16.20;11.30;;;4.10;99.90;;;;;;5052750;28;20461;-73
2022/04/04 02:06:18;;;;;;;15.52;11.05;;;4.10;99.90;;;;;;5052700;28;20072;-72
2022/04/04 02:08:44;;;;;;;15.27;10.40;;;4.10;99.90;;;;;;5052686;28;20098;-74
2022/04/04 02:11:12;;;;;;;15.57;9.60;;;4.10;99.90;;;;;;5050219;28;20417;-73
2022/04/04 02:13:39;;;;;;;13.60;9.73;;;4.20;99.90;;;;;;5053771;28;20047;-74
2022/04/04 02:16:05;;;;;;;15.02;11.20;;;4.10;99.90;;;;;;5035814;28;20052;-71
2022/04/04 02:18:32;;;;;;;16.30;10.98;;;4.20;99.90;;;;;;5086019;28;20076;-76
2022/04/04 02:20:59;;;;;;;16.90;10.88;;;4.20;99.90;;;;;;5052379;28;20512;-72
2022/04/04 02:23:25;;;;;;;18.58;11.98;;;4.20;99.90;;;;;;5085950;28;20045;-72
2022/04/04 02:25:55;;;;;;;17.65;11.50;;;4.30;99.90;;;;;;5085630;28;20059;-73
2022/04/04 02:28:22;;;;;;;14.03;10.50;;;4.30;99.90;;;;;;5086052;28;20521;-71
2022/04/04 02:30:51;;;;;;;15.63;10.10;;;4.30;99.90;;;;;;5052165;28;20486;-73
2022/04/04 02:33:19;;;;;;;18.90;12.68;;;4.30;99.90;;;;;;5085789;28;20048;-73
2022/04/04 02:35:46;;;;;;;20.15;12.32;;;4.30;99.90;;;;;;5053423;28;20068;-71
2022/04/04 02:38:12;;;;;;;17.73;11.73;;;4.40;99.90;;;;;;5035579;28;20060;-73
2022/04/04 02:40:40;;;;;;;17.13;11.65;;;4.40;99.90;;;;;;5050203;28;20051;-73
2022/04/04 02:43:07;;;;;;;19.77;12.95;;;4.40;99.90;;;;;;5051987;28;20045;-72
2022/04/04 02:45:33;;;;;;;18.10;12.15;;;4.40;99.90;;;;;;5053294;28;20033;-75
2022/04/04 02:47:59;;;;;;;19.27;11.07;;;4.50;99.90;;;;;;5052053;28;20040;-74
2022/04/04 02:50:26;;;;;;;19.88;11.60;;;4.50;99.90;;;;;;5085407;28;20036;-73
2022/04/04 02:52:52;;;;;;;18.63;11.43;;;4.50;99.90;;;;;;5052982;28;20037;-75
2022/04/04 02:58:03;;;;;;;16.88;13.20;;;4.50;99.90;;;;;;5053138;28;20397;-71
2022/04/04 03:00:29;;;;;;;18.35;12.55;;;4.60;99.90;;;;;;5052887;28;20064;-74
2022/04/04 03:02:56;;;;;;;18.52;11.57;;;4.60;99.90;;;;;;5068207;28;20041;-75
2022/04/04 03:05:22;;;;;;;21.85;12.32;;;4.60;99.90;;;;;;5052713;28;20412;-72
2022/04/04 03:07:48;;;;;;;18.45;11.70;;;4.70;99.90;;;;;;5051543;28;20048;-73
2022/04/04 03:10:15;;;;;;;14.95;10.45;;;4.70;99.90;;;;;;5068006;28;20041;-72
2022/04/04 03:12:45;;;;;;;18.48;11.60;;;4.70;99.90;;;;;;5078757;28;20044;-73
2022/04/04 03:15:15;;;;;;;;;;;4.70;99.90;;;;;;5033250;28;20041;-76
2022/04/04 03:17:43;;;;;;;22.40;11.57;;;4.70;99.90;;;;;;5031517;28;19960;-76
2022/04/04 03:20:15;;;;;;;15.35;11.05;;;4.80;99.90;;;;;;5031564;28;20410;-72
2022/04/04 03:22:44;;;;;;;23.85;12.25;;;4.80;99.90;;;;;;5031089;28;20490;-71
2022/04/04 03:25:11;;;;;;;18.73;11.55;;;4.80;99.90;;;;;;5032220;28;20509;-72
2022/04/04 03:27:38;;;;;;;21.15;12.38;;;4.90;99.90;;;;;;5032365;28;20418;-75
2022/04/04 03:30:05;;;;;;;23.20;10.60;;;4.90;99.90;;;;;;5031392;28;20489;-72
2022/04/04 03:32:31;;;;;;;22.20;11.70;;;5.00;99.90;;;;;;5032374;28;20041;-71
2022/04/04 03:34:58;;;;;;;16.30;10.50;;;5.10;99.90;;;;;;5032372;28;20087;-75
2022/04/04 03:37:24;;;;;;;17.63;11.30;;;5.30;99.90;;;;;;5031191;28;20052;-77
2022/04/04 03:39:51;;;;;;;17.98;11.52;;;5.40;99.90;;;;;;5032212;28;20095;-73
2022/04/04 03:42:17;;;;;;;16.23;10.88;;;5.40;99.90;;;;;;5030330;28;20402;-78
2022/04/04 03:44:43;;;;;;;16.63;10.43;;;5.50;99.90;;;;;;5030950;28;20049;-76
2022/04/04 03:47:10;;;;;;;19.77;11.57;;;5.50;99.90;;;;;;5030859;28;20041;-76
2022/04/04 03:49:39;;;;;;;17.15;10.57;;;5.60;99.90;;;;;;5030975;28;20120;-72
2022/04/04 03:52:06;;;;;;;21.75;11.10;;;5.70;99.90;;;;;;5030825;28;20057;-72
2022/04/04 03:54:33;;;;;;;20.63;12.48;;;5.70;99.90;;;;;;5047517;28;20041;-80
2022/04/04 03:56:59;;;;;;;20.63;12.45;;;5.70;99.90;;;;;;5064202;28;20053;-76
2022/04/04 03:59:26;;;;;;;17.48;10.82;;;5.60;99.90;;;;;;5032549;28;20052;-75
2022/04/04 04:01:51;;;;;;;16.48;11.68;;;5.60;99.90;;;;;;5031999;28;20490;-75
2022/04/04 04:04:17;;;;;;;17.92;11.95;;;5.60;99.90;;;;;;5030876;28;20084;-75
2022/04/04 04:06:45;;;;;;;21.42;11.38;;;5.60;99.90;;;;;;5047502;28;20030;-77
2022/04/04 04:09:12;;;;;;;17.77;11.85;;;5.60;99.90;;;;;;5030878;28;20554;-78
2022/04/04 04:11:37;;;;;;;15.90;10.15;;;5.60;99.90;;;;;;5028534;28;20072;-76
2022/04/04 04:14:03;;;;;;;16.73;10.40;;;5.60;99.90;;;;;;5045621;28;20157;-79
2022/04/04 04:16:30;;;;;;;24.15;13.32;;;5.60;99.90;;;;;;5084296;28;20048;-79
2022/04/04 04:18:56;;;;;;;17.85;11.73;;;5.50;99.90;;;;;;5050761;28;20397;-79
2022/04/04 04:21:22;;;;;;;19.42;11.50;;;5.60;99.90;;;;;;5067480;28;20041;-77
2022/04/04 04:23:48;;;;;;;20.75;11.50;;;5.50;99.90;;;;;;5050450;28;20128;-77
2022/04/04 04:26:15;;;;;;;20.38;11.30;;;5.50;99.90;;;;;;5083886;28;20144;-77
2022/04/04 04:28:42;;;;;;;24.95;12.68;;;5.50;99.90;;;;;;5050500;28;20116;-78
2022/04/04 04:31:08;;;;;;;28.95;14.52;;;5.50;99.90;;;;;;5084116;28;20059;-78
2022/04/04 04:33:34;;;;;;;20.85;12.93;;;5.50;99.90;;;;;;5067264;28;20489;-78
2022/04/04 04:36:00;;;;;;;21.42;13.23;;;5.50;99.90;;;;;;5053868;28;20099;-78
2022/04/04 04:38:26;;;;;;;19.20;12.85;;;5.50;99.90;;;;;;5088055;28;20448;-78
2022/04/04 04:40:53;;;;;;;23.40;14.10;;;5.50;99.90;;;;;;5053216;28;20540;-76
2022/04/04 04:43:19;;;;;;;22.00;13.52;;;5.50;99.90;;;;;;5087753;28;20041;-77
2022/04/04 04:45:45;;;;;;;22.25;12.70;;;5.50;99.90;;;;;;5087715;28;20520;-76
2022/04/04 04:48:11;;;;;;;19.08;11.30;;;5.50;99.90;;;;;;5037578;28;20098;-75
2022/04/04 04:50:38;;;;;;;17.98;12.48;;;5.50;99.90;;;;;;5054058;28;20124;-73
2022/04/04 04:53:04;;;;;;;23.08;14.70;;;5.40;99.90;;;;;;5055469;28;20032;-75
2022/04/04 04:55:30;;;;;;;22.13;12.75;;;5.40;99.90;;;;;;5087672;28;20052;-75
2022/04/04 04:57:57;;;;;;;23.88;13.32;;;5.40;99.90;;;;;;5070575;28;20097;-75
2022/04/04 05:00:26;;;;;;;22.88;13.98;;;5.40;99.90;;;;;;5055455;28;20039;-75
2022/04/04 05:03:24;;;;;;;18.83;11.45;;;5.50;99.90;;;;;;5055227;28;20112;-70
2022/04/04 05:05:40;;;;;;;19.80;10.95;;;5.50;99.90;;;;;;5053843;28;20041;-74
2022/04/04 05:08:06;;;;;;;18.10;9.65;;;5.50;99.90;;;;;;5053746;28;20037;-75
2022/04/04 05:10:32;;;;;;;17.67;9.13;;;5.50;99.90;;;;;;5053528;28;20056;-73
2022/04/04 05:12:58;;;;;;;15.75;8.45;;;5.60;99.90;;;;;;5062356;28;20038;-76
2022/04/04 05:15:24;;;;;;;10.07;7.20;;;5.60;99.90;;;;;;5067314;28;20120;-75
2022/04/04 05:17:52;;;;;;;10.23;6.00;;;5.60;99.90;;;;;;5033656;28;20042;-68
2022/04/04 05:20:18;;;;;;;11.48;5.00;;;5.70;99.90;;;;;;5035016;28;20045;-73
2022/04/04 05:22:45;;;;;;;7.15;4.75;;;5.70;99.90;;;;;;5033702;28;20354;-70
2022/04/04 05:25:11;;;;;;;9.27;5.13;;;5.70;99.90;;;;;;5033535;28;20101;-74
2022/04/04 05:27:38;;;;;;;10.23;6.18;;;5.80;99.90;;;;;;5033287;28;20050;-76
2022/04/04 05:30:06;;;;;;;11.82;5.63;;;5.80;99.90;;;;;;5033672;28;20042;-76
2022/04/04 05:32:31;;;;;;;13.70;7.78;;;5.80;99.90;;;;;;5039526;28;20045;-75
2022/04/04 05:34:57;;;;;;;12.40;6.15;;;5.80;99.90;;;;;;5049950;28;20099;-74
2022/04/04 05:37:25;;;;;;;12.27;5.65;;;5.90;99.90;;;;;;5034575;28;20049;-74
2022/04/04 05:39:51;;;;;;;14.02;5.45;;;5.80;99.90;;;;;;5034502;28;20049;-69
2022/04/04 05:42:16;;;;;;;8.88;4.50;;;5.80;99.90;;;;;;5047365;28;20049;-71
2022/04/04 05:44:43;;;;;;;10.02;5.25;;;5.90;99.90;;;;;;5034784;28;20092;-75
2022/04/04 05:47:13;;;;;;;9.15;5.05;;;5.80;99.90;;;;;;5033812;28;20110;-73
2022/04/04 05:49:40;;;;;;;10.90;4.90;;;5.80;99.90;;;;;;5033210;28;20044;-72
2022/04/04 05:52:06;;;;;;;13.32;5.20;;;5.80;99.90;;;;;;5066648;28;20069;-73
2022/04/04 05:54:32;;;;;;;11.50;5.22;;;5.70;99.90;;;;;;5033429;28;20116;-73
2022/04/04 05:56:58;;;;;;;9.50;5.03;;;5.70;99.90;;;;;;5066469;28;20049;-71
2022/04/04 05:59:25;;;;;;;12.13;5.18;;;5.60;99.90;;;;;;5034876;28;20103;-70
2022/04/04 06:01:51;;;;;;;12.65;4.88;;;5.60;99.90;;;;;;5034069;28;20375;-71
2022/04/04 06:04:17;;;;;;;6.78;4.25;;;5.60;99.90;;;;;;5066187;28;20072;-71
2022/04/04 06:06:42;;;;;;;9.20;4.80;;;5.60;99.90;;;;;;5032811;28;20037;-69
2022/04/04 06:09:09;;;;;;;10.40;4.50;;;5.60;99.90;;;;;;5034032;28;20057;-69
2022/04/04 06:11:34;;;;;;;13.27;4.85;;;5.50;99.90;;;;;;5030271;28;20037;-69
2022/04/04 06:14:00;;;;;;;12.55;5.05;;;5.50;99.90;;;;;;5047379;28;20132;-68
2022/04/04 06:16:26;;;;;;;12.93;5.43;;;5.50;99.90;;;;;;5053986;28;20052;-67
2022/04/04 06:18:53;;;;;;;12.68;3.88;;;5.40;99.90;;;;;;5053715;28;20397;-68
2022/04/04 06:21:18;;;;;;;8.18;4.85;;;5.40;99.90;;;;;;5052832;28;20041;-67
2022/04/04 06:23:44;;;;;;;7.03;3.83;;;5.40;99.90;;;;;;5052871;28;20045;-68
2022/04/04 06:26:12;;;;;;;5.03;3.83;;;5.30;99.90;;;;;;5053723;28;20060;-67
2022/04/04 06:28:39;;;;;;;9.48;4.28;;;5.30;99.90;;;;;;5053791;28;20405;-67
2022/04/04 06:31:05;;;;;;;6.97;4.13;;;5.30;99.90;;;;;;5053601;28;20247;-67
2022/04/04 06:33:31;;;;;;;7.85;4.88;;;5.30;99.90;;;;;;5052512;28;20124;-67
2022/04/04 06:35:57;;;;;;;10.75;4.35;;;5.40;99.90;;;;;;5085938;28;20666;-66
2022/04/04 06:38:23;;;;;;;10.80;5.15;;;5.40;99.90;;;;;;5052130;28;20049;-67
2022/04/04 06:40:52;;;;;;;11.68;5.20;;;5.40;99.90;;;;;;5083480;28;20051;-67
2022/04/04 06:43:19;;;;;;;9.27;4.93;;;5.40;99.90;;;;;;5053309;28;20040;-67
2022/04/04 06:45:45;;;;;;;10.68;5.28;;;5.50;99.90;;;;;;5053438;28;20037;-68
2022/04/04 06:48:12;;;;;;;8.75;5.93;;;5.50;99.90;;;;;;5052240;28;20549;-68
2022/04/04 06:50:38;;;;;;;10.35;4.85;;;5.60;99.90;;;;;;5051915;28;20094;-68
2022/04/04 06:53:04;;;;;;;12.45;6.55;;;5.60;99.90;;;;;;5052153;28;20083;-67
2022/04/04 06:55:31;;;;;;;11.05;4.82;;;5.60;99.90;;;;;;5052098;28;20153;-70
2022/04/04 06:57:57;;;;;;;10.25;5.93;;;5.60;99.90;;;;;;5084667;28;20397;-67
2022/04/04 07:00:23;;;;;;;9.73;4.53;;;5.60;99.90;;;;;;5051869;28;20053;-68
2022/04/04 07:02:50;;;;;;;10.75;6.30;;;5.60;99.90;;;;;;5035242;28;20045;-67
2022/04/04 07:05:16;;;;;;;10.73;6.38;;;5.60;99.90;;;;;;5050740;28;20494;-66
2022/04/04 07:07:42;;;;;;;11.98;7.25;;;5.70;99.90;;;;;;5052257;28;20520;-66
2022/04/04 07:10:10;;;;;;;11.55;6.30;;;5.70;99.90;;;;;;5052187;28;20033;-68
2022/04/04 07:12:43;;;;;;;10.85;7.15;;;5.70;99.90;;;;;;5047729;28;20045;-66
2022/04/04 07:15:10;;;;;;;10.52;6.55;;;5.70;99.90;;;;;;5053693;28;20432;-66
2022/04/04 07:17:42;;;;;;;10.18;6.47;;;5.70;99.90;;;;;;5053454;28;20036;-67
2022/04/04 07:20:14;;;;;;;14.35;7.20;;;5.70;99.90;;;;;;5090110;27;20382;-67
2022/04/04 07:22:42;;;;;;;14.18;8.15;;;5.70;99.90;;;;;;5089515;28;20074;-68
2022/04/04 07:25:09;;;;;;;12.25;6.78;;;5.70;99.90;;;;;;5089367;28;20076;-68
2022/04/04 07:27:40;;;;;;;10.52;7.32;;;5.70;99.90;;;;;;5087971;28;20032;-69
2022/04/04 07:30:08;;;;;;;7.10;4.97;;;5.70;99.90;;;;;;5089312;28;20071;-67
2022/04/04 07:32:38;;;;;;;10.88;6.88;;;5.70;99.90;;;;;;5086444;28;20097;-66
2022/04/04 07:35:06;;;;;;;14.93;7.43;;;5.70;99.90;;;;;;5089467;28;20051;-67
2022/04/04 07:37:32;;;;;;;8.35;7.20;;;5.70;99.90;;;;;;5087726;28;20048;-66
2022/04/04 07:39:58;;;;;;;9.07;7.18;;;5.80;99.90;;;;;;5081735;28;20101;-66
2022/04/04 07:42:24;;;;;;;14.43;7.45;;;5.70;99.90;;;;;;5085563;28;20447;-66
2022/04/04 07:44:49;;;;;;;14.18;8.02;;;5.70;99.90;;;;;;5088764;28;20044;-67
2022/04/04 07:47:15;;;;;;;12.25;7.32;;;5.70;99.90;;;;;;5088024;28;20047;-67
2022/04/04 07:49:41;;;;;;;18.95;11.75;;;5.70;99.90;;;;;;5087405;28;20385;-67
2022/04/04 07:52:07;;;;;;;13.90;7.35;;;5.70;99.90;;;;;;5088746;28;20048;-67
2022/04/04 07:54:33;;;;;;;14.30;5.80;;;5.70;99.90;;;;;;5087467;28;20044;-66
2022/04/04 07:56:59;;;;;;;15.10;8.15;;;5.70;99.90;;;;;;5087612;28;20037;-67
2022/04/04 07:59:25;;;;;;;14.88;8.00;;;5.80;99.90;;;;;;5088449;28;20067;-66
2022/04/04 08:01:50;;;;;;;12.68;7.18;;;5.80;99.90;;;;;;5087726;28;20062;-67
2022/04/04 08:04:17;;;;;;;11.90;7.60;;;5.90;99.90;;;;;;5087588;28;20480;-66
2022/04/04 08:06:43;;;;;;;20.35;8.20;;;5.90;99.90;;;;;;5087635;28;20491;-66
2022/04/04 08:09:09;;;;;;;11.80;5.93;;;5.90;99.90;;;;;;5070640;28;20412;-66
2022/04/04 08:11:35;;;;;;;12.02;6.40;;;5.90;99.90;;;;;;5086107;28;20382;-65
2022/04/04 08:14:01;;;;;;;12.05;6.82;;;5.90;99.90;;;;;;5084072;28;20123;-66
2022/04/04 08:16:27;;;;;;;13.40;6.03;;;6.00;99.90;;;;;;5087474;28;20048;-67
2022/04/04 08:18:53;;;;;;;9.50;6.60;;;6.00;99.90;;;;;;5086308;28;20049;-67
2022/04/04 08:21:20;;;;;;;13.18;7.97;;;6.00;99.90;;;;;;5088701;28;20056;-66
2022/04/04 08:23:46;;;;;;;15.23;7.00;;;6.00;99.90;;;;;;5089249;28;20040;-67
2022/04/04 08:26:12;;;;;;;13.95;6.22;;;6.00;99.90;;;;;;5088741;28;20044;-67
2022/04/04 08:28:38;;;;;;;9.75;5.90;;;6.10;99.90;;;;;;5087480;28;20047;-67
2022/04/04 08:31:04;;;;;;;15.52;6.45;;;6.10;99.90;;;;;;5077580;28;20056;-67
2022/04/04 08:33:30;;;;;;;12.65;5.57;;;6.10;99.90;;;;;;5074576;28;20161;-68
2022/04/04 08:35:57;;;;;;;9.77;5.20;;;6.10;99.90;;;;;;5074157;28;20528;-69
2022/04/04 08:38:23;;;;;;;9.75;5.25;;;6.10;99.90;;;;;;5075384;28;20102;-69
2022/04/04 08:40:50;;;;;;;8.93;4.32;;;6.10;99.90;;;;;;5073269;28;20037;-67
2022/04/04 08:43:18;;;;;;;11.30;5.00;;;6.10;99.90;;;;;;5071089;28;20848;-68
2022/04/04 08:45:44;;;;;;;7.63;5.65;;;6.20;99.90;;;;;;5074260;28;20040;-68
2022/04/04 08:48:11;;;;;;;10.35;4.55;;;6.10;99.90;;;;;;5073909;28;20093;-68
2022/04/04 08:50:39;;;;;;;10.60;4.95;;;6.10;99.90;;;;;;5073709;28;20053;-68
2022/04/04 08:53:08;;;;;;;12.63;4.82;;;6.10;99.90;;;;;;5073859;28;20094;-69
2022/04/04 08:55:37;;;;;;;8.10;4.30;;;6.10;99.90;;;;;;5075114;28;20123;-68
2022/04/04 08:58:03;;;;;;;7.68;4.90;;;6.10;99.90;;;;;;5075050;28;20489;-69
2022/04/04 09:00:30;;;;;;;8.68;4.60;;;6.10;99.90;;;;;;5057015;28;20044;-67
2022/04/04 09:03:03;;;;;;;7.78;3.88;;;6.10;99.90;;;;;;5073740;28;20047;-69
2022/04/04 09:05:34;;;;;;;5.63;4.20;;;6.10;99.90;;;;;;5073837;28;20076;-70
2022/04/04 09:08:03;;;;;;;8.40;4.68;;;6.20;99.90;;;;;;5057164;28;20354;-69
2022/04/04 09:10:31;;;;;;;9.40;4.47;;;6.20;99.90;;;;;;5073380;28;20055;-71
2022/04/04 09:13:18;;;;;;;10.10;4.22;;;6.10;99.90;;;;;;5054930;28;20472;-69
2022/04/04 09:15:59;;;;;;;9.23;3.63;;;6.20;99.90;;;;;;5074663;28;20082;-68
2022/04/04 09:18:37;;;;;;;9.85;4.28;;;6.20;99.90;;;;;;5074537;28;20110;-70
2022/04/04 09:21:31;;;;;;;8.40;3.80;;;6.20;99.90;;;;;;5074680;28;20048;-68
2022/04/04 09:24:01;;;;;;;10.20;3.88;;;6.20;99.90;;;;;;5057331;28;20044;-69
2022/04/04 09:26:33;;;;;;;10.40;3.67;;;6.20;99.90;;;;;;5074679;28;20047;-68
2022/04/04 09:29:22;;;;;;;10.88;3.85;;;6.30;99.90;;;;;;5056409;28;20127;-68
2022/04/04 09:32:10;;;;;;;8.13;4.25;;;6.30;99.90;;;;;;5074517;28;20418;-69
2022/04/04 09:35:01;;;;;;;8.60;3.50;;;6.40;99.90;;;;;;5074369;28;20131;-67
2022/04/04 09:37:33;;;;;;;8.80;4.57;;;6.40;99.90;;;;;;5074311;28;20053;-67
2022/04/04 09:40:09;;;;;;;6.40;3.97;;;6.40;99.90;;;;;;5074033;28;20044;-67
2022/04/04 09:42:43;;;;;;;6.57;3.33;;;6.40;99.90;;;;;;5069575;28;20043;-67
2022/04/04 09:45:15;;;;;;;10.65;5.10;;;6.40;99.90;;;;;;5074526;28;20045;-68
2022/04/04 09:47:58;;;;;;;9.25;3.20;;;6.40;99.90;;;;;;5073051;28;20126;-69
2022/04/04 09:50:40;;;;;;;8.90;4.22;;;6.40;99.90;;;;;;5072994;28;20040;-69
2022/04/04 09:53:17;;;;;;;10.27;5.28;;;6.50;99.90;;;;;;5056387;28;20057;-69
2022/04/04 09:55:52;;;;;;;10.48;4.55;;;6.50;99.90;;;;;;5072893;28;20495;-69
2022/04/04 09:58:27;;;;;;;8.27;4.35;;;6.50;99.90;;;;;;5071028;28;20053;-68
2022/04/04 10:01:00;;;;;;;8.02;4.10;;;6.50;99.90;;;;;;5055977;28;20043;-70
2022/04/04 10:03:35;;;;;;;10.93;5.07;;;6.50;99.90;;;;;;5073210;28;20047;-68
2022/04/04 10:06:14;;;;;;;9.45;3.83;;;6.60;99.90;;;;;;5073523;28;20044;-68
2022/04/04 10:08:46;;;;;;;6.78;4.07;;;6.60;99.90;;;;;;5073645;28;20127;-68
2022/04/04 10:11:18;;;;;;;8.93;3.80;;;6.60;99.90;;;;;;5070054;28;20085;-69
2022/04/04 10:13:55;;;;;;;9.32;4.25;;;6.70;99.90;;;;;;5072305;28;20050;-68
2022/04/04 10:16:24;;;;;;;11.30;4.20;;;6.70;99.90;;;;;;5055506;28;20473;-68
2022/04/04 10:18:54;;;;;;;14.90;5.47;;;6.80;99.90;;;;;;5073144;28;20049;-68
2022/04/04 10:21:27;;;;;;;8.45;4.35;;;6.80;99.90;;;;;;5055685;28;20044;-68
2022/04/04 10:24:02;;;;;;;9.52;4.20;;;6.90;99.90;;;;;;5072323;28;20033;-70
2022/04/04 10:26:35;;;;;;;9.35;3.53;;;6.90;99.90;;;;;;5072304;28;20048;-68
2022/04/04 10:29:22;;;;;;;6.68;3.28;;;6.90;99.90;;;;;;5056065;28;20106;-69
2022/04/04 10:31:56;;;;;;;7.82;3.25;;;6.90;99.90;;;;;;5071087;28;20208;-68
2022/04/04 10:34:26;;;;;;;8.65;3.17;;;6.90;99.90;;;;;;5072110;28;20047;-69
2022/04/04 10:37:00;;;;;;;9.38;4.82;;;6.90;99.90;;;;;;5055772;28;20157;-69
2022/04/04 10:39:44;;;;;;;8.88;3.85;;;6.90;99.90;;;;;;5071981;28;20634;-70
2022/04/04 10:42:27;;;;;;;7.72;3.40;;;6.90;99.90;;;;;;5069845;28;20473;-72
2022/04/04 10:45:16;;;;;;;6.53;3.38;;;7.00;99.90;;;;;;5071982;28;20078;-69
2022/04/04 10:47:46;;;;;;;6.25;2.92;;;7.00;99.90;;;;;;5055458;28;20106;-69
2022/04/04 10:50:24;;;;;;;6.55;3.03;;;7.00;99.90;;;;;;5070495;28;20143;-70
2022/04/04 10:52:53;;;;;;;6.38;2.88;;;7.10;99.90;;;;;;5072554;28;20463;-70
2022/04/04 10:55:38;;;;;;;6.10;2.50;;;7.10;99.90;;;;;;5071730;28;20040;-70
2022/04/04 10:58:13;;;;;;;5.13;2.20;;;7.00;99.90;;;;;;5072821;28;20074;-70
2022/04/04 11:01:14;;;;;;;5.00;3.10;;;7.10;99.90;;;;;;5071832;28;20079;-71
2022/04/04 11:03:53;;;;;;;6.07;3.47;;;7.10;99.90;;;;;;5072719;28;20090;-70
2022/04/04 11:09:32;;;;;;;4.90;2.70;;;7.10;99.90;;;;;;5071595;28;20048;-69
2022/04/04 11:12:00;;;;;;;5.70;2.63;;;7.20;99.90;;;;;;5070414;28;20551;-71
2022/04/04 11:14:42;;;;;;;6.85;3.28;;;7.20;99.90;;;;;;5071474;28;20123;-69
2022/04/04 11:17:08;;;;;;;9.98;5.30;;;7.20;99.90;;;;;;5071640;28;20393;-70
2022/04/04 11:19:44;;;;;;;4.00;2.17;;;7.20;99.90;;;;;;5072416;28;20053;-72
2022/04/04 11:22:20;;;;;;;9.13;4.47;;;7.30;99.90;;;;;;5071566;28;20047;-71
2022/04/04 11:24:51;;;;;;;7.53;3.95;;;7.30;99.90;;;;;;5071420;28;20044;-70
2022/04/04 11:27:18;;;;;;;10.57;3.67;;;7.30;99.90;;;;;;5071387;28;20036;-70
2022/04/04 11:29:44;;;;;;;14.18;6.35;;;7.40;99.90;;;;;;5071725;28;20370;-71
2022/04/04 11:32:19;;;;;;;13.95;6.85;;;7.40;99.90;;;;;;5071217;28;20124;-72
2022/04/04 11:34:45;;;;;;;5.00;2.55;;;7.40;99.90;;;;;;5054951;28;20048;-72
2022/04/04 11:37:18;;;;;;;5.03;3.15;;;7.50;99.90;;;;;;5073722;28;20055;-71
2022/04/04 11:42:41;;;;;;;4.13;2.90;;;7.60;99.90;;;;;;5066053;28;20128;-71
2022/04/04 11:45:08;;;;;;;5.95;1.85;;;7.60;99.90;;;;;;5070857;28;20036;-71
2022/04/04 11:47:41;;;;;;;9.23;3.08;;;7.70;99.90;;;;;;5070757;28;20048;-72
2022/04/04 11:50:08;;;;;;;4.55;2.42;;;7.70;99.90;;;;;;5071427;28;20464;-71
2022/04/04 11:52:48;;;;;;;4.75;2.95;;;7.70;99.90;;;;;;5071025;28;20057;-72
2022/04/04 11:55:19;;;;;;;3.83;2.53;;;7.70;99.90;;;;;;5054644;28;20131;-72
2022/04/04 12:00:53;;;;;;;3.17;1.98;;;7.80;99.90;;;;;;5057793;28;20056;-71
2022/04/04 12:03:20;;;;;;;7.97;4.57;;;7.80;99.90;;;;;;5071013;28;20047;-72
2022/04/04 12:05:48;;;;;;;6.05;3.40;;;7.80;99.90;;;;;;5069673;28;20041;-70
2022/04/04 12:08:18;;;;;;;5.47;2.80;;;7.80;99.90;;;;;;5076097;28;20077;-71
2022/04/04 12:10:47;;;;;;;3.75;2.85;;;7.80;99.90;;;;;;5073921;28;20666;-72
2022/04/04 12:13:22;;;;;;;5.38;3.45;;;7.80;99.90;;;;;;5072808;28;20045;-72
2022/04/04 12:15:50;;;;;;;4.03;2.83;;;7.90;99.90;;;;;;5075761;28;20037;-73
2022/04/04 12:18:29;;;;;;;4.22;2.90;;;7.90;99.90;;;;;;5075242;28;20040;-71
2022/04/04 12:21:01;;;;;;;5.30;3.03;;;7.90;99.90;;;;;;5074334;28;20060;-71
2022/04/04 12:26:15;;;;;;;5.05;3.33;;;8.00;99.90;;;;;;5074358;28;20130;-71
2022/04/04 12:28:52;;;;;;;4.57;3.67;;;8.00;99.90;;;;;;5075403;28;20409;-70
2022/04/04 12:31:21;;;;;;;3.97;2.95;;;8.00;99.90;;;;;;5075560;28;20037;-72
2022/04/04 12:34:00;;;;;;;5.35;3.42;;;8.10;99.90;;;;;;5075665;28;20046;-72
2022/04/04 12:36:30;;;;;;;4.57;3.57;;;8.10;99.90;;;;;;5075304;28;20040;-71
2022/04/04 12:39:00;;;;;;;4.63;3.15;;;8.20;99.90;;;;;;5074157;28;20129;-72
2022/04/04 12:41:26;;;;;;;4.82;2.90;;;8.20;99.90;;;;;;5072085;28;20044;-72
2022/04/04 12:44:00;;;;;;;4.15;2.63;;;8.30;99.90;;;;;;5075411;28;20028;-72
2022/04/04 12:46:28;;;;;;;3.92;2.70;;;8.30;99.90;;;;;;5073924;28;20090;-73
2022/04/04 12:49:07;;;;;;;4.20;3.00;;;8.30;99.90;;;;;;5074128;28;20040;-71
2022/04/04 12:51:32;;;;;;;3.50;2.42;;;8.30;99.90;;;;;;5057068;28;20133;-72
2022/04/04 12:54:02;;;;;;;3.35;2.58;;;8.40;99.90;;;;;;5074126;28;20091;-72
2022/04/04 12:56:31;;;;;;;3.75;2.78;;;8.40;99.90;;;;;;5074932;28;20527;-71
2022/04/04 12:59:08;;;;;;;4.10;3.10;;;8.40;99.90;;;;;;5075050;28;20129;-73
2022/04/04 13:01:35;;;;;;;5.07;3.50;;;8.40;99.90;;;;;;5075061;28;20039;-69
2022/04/04 13:04:03;;;;;;;8.73;6.90;;;8.40;99.90;;;;;;5073691;28;20056;-74
2022/04/04 13:06:30;;;;;;;5.32;3.50;;;8.50;99.90;;;;;;5073575;28;20036;-74
2022/04/04 13:08:59;;;;;;;5.20;3.95;;;8.50;99.90;;;;;;5073448;28;20051;-73
2022/04/04 13:11:26;;;;;;;5.28;3.70;;;8.50;99.90;;;;;;5071408;28;20048;-74